createdAt,value
2019-05-06T00:00:06.818Z,0.00
2019-05-06T00:01:06.819Z,0.00
2019-05-06T00:02:06.828Z,0.00
2019-05-06T00:03:06.806Z,0.00
2019-05-06T00:04:06.786Z,0.00
2019-05-06T00:05:06.767Z,0.00
2019-05-06T00:06:06.766Z,0.00
2019-05-06T00:07:06.765Z,0.00
2019-05-06T00:08:06.729Z,0.00
2019-05-06T00:09:06.720Z,0.00
2019-05-06T00:10:06.707Z,0.00
2019-05-06T00:11:06.694Z,0.00
2019-05-06T00:12:06.726Z,0.00
2019-05-06T00:13:06.679Z,0.00
2019-05-06T00:14:06.681Z,0.00
2019-05-06T00:15:06.647Z,0.00
2019-05-06T00:16:06.646Z,0.00
2019-05-06T00:17:06.669Z,0.00
2019-05-06T00:18:06.632Z,0.00
2019-05-06T00:19:06.628Z,0.00
2019-05-06T00:20:06.605Z,0.00
2019-05-06T00:21:06.597Z,0.00
2019-05-06T00:22:06.587Z,0.00
2019-05-06T00:23:06.596Z,0.00
2019-05-06T00:24:06.567Z,0.00
2019-05-06T00:25:06.556Z,0.00
2019-05-06T00:26:06.566Z,0.00
2019-05-06T00:27:06.525Z,0.00
2019-05-06T00:28:06.525Z,0.00
2019-05-06T00:29:06.503Z,0.00
2019-05-06T00:30:06.516Z,0.00
2019-05-06T00:31:12.637Z,0.00
2019-05-06T00:32:07.476Z,0.00
2019-05-06T00:33:06.454Z,0.00
2019-05-06T00:34:06.454Z,0.00
2019-05-06T00:35:06.447Z,0.00
2019-05-06T00:36:06.436Z,0.00
2019-05-06T00:37:06.434Z,0.00
2019-05-06T00:38:06.394Z,0.00
2019-05-06T00:39:06.404Z,0.00
2019-05-06T00:40:06.384Z,0.00
2019-05-06T00:41:06.363Z,0.00
2019-05-06T00:42:06.391Z,0.00
2019-05-06T00:43:06.345Z,0.00
2019-05-06T00:44:06.345Z,0.00
2019-05-06T00:45:06.322Z,0.00
2019-05-06T00:46:06.338Z,0.00
2019-05-06T00:47:06.311Z,0.00
2019-05-06T00:48:06.312Z,0.00
2019-05-06T00:49:06.293Z,0.00
2019-05-06T00:50:06.277Z,0.00
2019-05-06T00:51:06.273Z,0.00
2019-05-06T00:52:06.252Z,0.00
2019-05-06T00:53:06.262Z,0.00
2019-05-06T00:54:06.236Z,0.00
2019-05-06T00:55:06.213Z,0.00
2019-05-06T00:56:06.209Z,0.00
2019-05-06T00:57:06.209Z,0.00
2019-05-06T00:58:06.201Z,0.00
2019-05-06T00:59:06.183Z,0.00
2019-05-06T01:00:06.159Z,0.00
2019-05-06T01:01:06.169Z,0.00
2019-05-06T01:02:06.153Z,0.00
2019-05-06T01:03:06.161Z,0.00
2019-05-06T01:04:06.135Z,0.00
2019-05-06T01:05:06.110Z,0.00
2019-05-06T01:06:06.098Z,0.00
2019-05-06T01:07:06.088Z,0.00
2019-05-06T01:08:06.096Z,0.00
2019-05-06T01:09:06.072Z,0.00
2019-05-06T01:10:06.076Z,0.00
2019-05-06T01:11:06.051Z,0.00
2019-05-06T01:12:06.054Z,0.00
2019-05-06T01:13:06.037Z,0.00
2019-05-06T01:14:06.021Z,0.00
2019-05-06T01:15:06.008Z,0.00
2019-05-06T01:16:05.998Z,0.00
2019-05-06T01:17:05.999Z,0.00
2019-05-06T01:18:05.979Z,0.00
2019-05-06T01:19:05.959Z,0.00
2019-05-06T01:20:05.959Z,0.00
2019-05-06T01:21:05.943Z,0.00
2019-05-06T01:22:05.944Z,0.00
2019-05-06T01:23:05.914Z,0.00
2019-05-06T01:24:05.921Z,0.00
2019-05-06T01:25:05.897Z,0.00
2019-05-06T01:26:05.883Z,0.00
2019-05-06T01:27:05.864Z,0.00
2019-05-06T01:28:05.858Z,0.00
2019-05-06T01:29:05.878Z,0.00
2019-05-06T01:30:05.838Z,0.00
2019-05-06T01:31:05.837Z,0.00
2019-05-06T01:32:05.818Z,0.00
2019-05-06T01:33:05.826Z,0.00
2019-05-06T01:34:05.817Z,0.00
2019-05-06T01:35:05.788Z,0.00
2019-05-06T01:36:05.778Z,0.00
2019-05-06T01:37:05.788Z,0.00
2019-05-06T01:38:05.758Z,0.00
2019-05-06T01:39:05.741Z,0.00
2019-05-06T01:40:05.743Z,0.00
2019-05-06T01:41:05.717Z,0.00
2019-05-06T01:42:05.724Z,0.00
2019-05-06T01:43:05.694Z,0.00
2019-05-06T01:44:05.691Z,0.00
2019-05-06T01:45:05.664Z,0.00
2019-05-06T01:46:05.690Z,0.00
2019-05-06T01:47:05.656Z,0.00
2019-05-06T01:48:05.645Z,0.00
2019-05-06T01:49:05.634Z,0.00
2019-05-06T01:50:05.633Z,0.00
2019-05-06T01:51:05.632Z,0.00
2019-05-06T01:52:05.610Z,0.00
2019-05-06T01:53:05.583Z,0.00
2019-05-06T01:54:05.578Z,0.00
2019-05-06T01:55:05.560Z,0.00
2019-05-06T01:56:05.613Z,0.00
2019-05-06T01:57:05.563Z,0.00
2019-05-06T01:58:05.534Z,0.00
2019-05-06T01:59:05.522Z,0.00
2019-05-06T02:00:05.513Z,0.00
2019-05-06T02:01:05.512Z,0.00
2019-05-06T02:02:05.499Z,0.00
2019-05-06T02:03:05.482Z,0.00
2019-05-06T02:04:05.463Z,0.00
2019-05-06T02:05:05.459Z,0.00
2019-05-06T02:06:05.441Z,0.00
2019-05-06T02:07:05.472Z,0.00
2019-05-06T02:08:05.419Z,0.00
2019-05-06T02:09:05.418Z,0.00
2019-05-06T02:10:05.400Z,0.00
2019-05-06T02:11:05.393Z,0.00
2019-05-06T02:12:05.381Z,0.00
2019-05-06T02:13:05.400Z,0.00
2019-05-06T02:14:05.360Z,0.00
2019-05-06T02:15:05.360Z,0.00
2019-05-06T02:16:05.329Z,0.00
2019-05-06T02:17:05.360Z,0.00
2019-05-06T02:18:05.322Z,0.00
2019-05-06T02:19:05.318Z,0.00
2019-05-06T02:20:05.287Z,0.00
2019-05-06T02:21:05.575Z,0.00
2019-05-06T02:22:05.287Z,0.00
2019-05-06T02:23:05.279Z,0.00
2019-05-06T02:24:05.267Z,0.00
2019-05-06T02:25:05.237Z,0.00
2019-05-06T02:26:05.228Z,0.00
2019-05-06T02:27:05.220Z,0.00
2019-05-06T02:28:05.204Z,0.00
2019-05-06T02:29:05.219Z,0.00
2019-05-06T02:30:05.689Z,0.00
2019-05-06T02:31:05.428Z,0.00
2019-05-06T02:32:17.307Z,0.00
2019-05-06T02:33:06.152Z,0.00
2019-05-06T02:34:05.357Z,0.00
2019-05-06T02:35:05.454Z,0.00
2019-05-06T02:36:06.540Z,0.00
2019-05-06T02:37:06.350Z,0.00
2019-05-06T02:38:05.218Z,0.00
2019-05-06T02:39:05.088Z,0.00
2019-05-06T02:40:05.069Z,0.00
2019-05-06T02:41:05.070Z,0.00
2019-05-06T02:42:05.078Z,0.00
2019-05-06T02:43:05.045Z,0.00
2019-05-06T02:44:05.038Z,0.00
2019-05-06T02:45:05.038Z,0.00
2019-05-06T02:46:05.015Z,0.00
2019-05-06T02:47:05.014Z,0.00
2019-05-06T02:48:04.983Z,0.00
2019-05-06T02:49:04.978Z,0.00
2019-05-06T02:50:04.997Z,0.00
2019-05-06T02:51:04.973Z,0.00
2019-05-06T02:52:04.957Z,0.00
2019-05-06T02:53:04.934Z,0.00
2019-05-06T02:54:04.927Z,0.00
2019-05-06T02:55:06.388Z,0.00
2019-05-06T02:56:05.405Z,0.00
2019-05-06T02:57:04.913Z,0.00
2019-05-06T02:58:04.874Z,0.00
2019-05-06T02:59:04.871Z,0.00
2019-05-06T03:00:05.381Z,0.00
2019-05-06T03:01:04.857Z,0.00
2019-05-06T03:02:04.851Z,0.00
2019-05-06T03:03:04.822Z,0.00
2019-05-06T03:04:04.935Z,0.00
2019-05-06T03:05:04.813Z,0.00
2019-05-06T03:06:04.835Z,0.00
2019-05-06T03:07:04.785Z,0.00
2019-05-06T03:08:04.767Z,0.00
2019-05-06T03:09:04.763Z,0.00
2019-05-06T03:10:04.741Z,0.00
2019-05-06T03:11:04.777Z,0.00
2019-05-06T03:12:04.738Z,0.00
2019-05-06T03:13:04.735Z,0.00
2019-05-06T03:14:04.734Z,0.00
2019-05-06T03:15:04.711Z,0.00
2019-05-06T03:16:05.857Z,0.00
2019-05-06T03:17:04.689Z,0.00
2019-05-06T03:18:04.674Z,0.00
2019-05-06T03:19:04.652Z,0.00
2019-05-06T03:20:05.776Z,0.00
2019-05-06T03:21:04.636Z,0.00
2019-05-06T03:22:04.618Z,0.00
2019-05-06T03:23:04.689Z,0.00
2019-05-06T03:24:07.506Z,0.00
2019-05-06T03:25:06.968Z,0.00
2019-05-06T03:26:06.489Z,0.00
2019-05-06T03:27:04.992Z,0.00
2019-05-06T03:28:04.582Z,0.00
2019-05-06T03:29:04.559Z,0.00
2019-05-06T03:30:04.671Z,0.00
2019-05-06T03:31:06.629Z,0.00
2019-05-06T03:32:06.911Z,0.00
2019-05-06T03:34:28.909Z,0.00
2019-05-06T03:35:25.764Z,0.00
2019-05-06T03:36:14.925Z,0.00
2019-05-06T03:37:07.848Z,0.00
2019-05-06T03:38:04.479Z,0.00
2019-05-06T03:39:04.447Z,0.00
2019-05-06T03:40:04.429Z,0.00
2019-05-06T03:41:04.422Z,0.00
2019-05-06T03:42:04.927Z,0.00
2019-05-06T03:43:04.570Z,0.00
2019-05-06T03:44:04.389Z,5.62
2019-05-06T03:45:04.573Z,5.62
2019-05-06T03:46:04.706Z,5.62
2019-05-06T03:47:05.719Z,5.62
2019-05-06T03:48:05.952Z,5.62
2019-05-06T03:49:04.618Z,5.62
2019-05-06T03:50:05.507Z,5.62
2019-05-06T03:51:04.433Z,5.62
2019-05-06T03:52:04.335Z,11.25
2019-05-06T03:53:04.965Z,11.25
2019-05-06T03:54:04.319Z,11.25
2019-05-06T03:55:04.406Z,11.25
2019-05-06T03:56:04.259Z,11.25
2019-05-06T03:57:04.317Z,16.88
2019-05-06T03:58:04.280Z,16.88
2019-05-06T03:59:04.237Z,16.88
2019-05-06T04:00:05.061Z,16.88
2019-05-06T04:01:04.209Z,22.50
2019-05-06T04:02:05.160Z,22.50
2019-05-06T04:03:04.171Z,22.50
2019-05-06T04:04:04.189Z,22.50
2019-05-06T04:05:04.397Z,28.12
2019-05-06T04:06:04.667Z,28.12
2019-05-06T04:07:04.147Z,28.12
2019-05-06T04:08:04.209Z,33.75
2019-05-06T04:09:04.110Z,33.75
2019-05-06T04:10:04.204Z,33.75
2019-05-06T04:11:04.113Z,33.75
2019-05-06T04:12:04.101Z,39.38
2019-05-06T04:13:04.380Z,39.38
2019-05-06T04:14:04.067Z,45.00
2019-05-06T04:15:04.445Z,45.00
2019-05-06T04:16:04.137Z,50.62
2019-05-06T04:17:04.040Z,50.62
2019-05-06T04:18:04.182Z,56.25
2019-05-06T04:19:04.358Z,56.25
2019-05-06T04:20:04.806Z,61.88
2019-05-06T04:21:08.547Z,61.88
2019-05-06T04:22:04.010Z,67.50
2019-05-06T04:23:06.455Z,67.50
2019-05-06T04:24:04.399Z,73.12
2019-05-06T04:25:04.341Z,73.12
2019-05-06T04:26:04.653Z,73.12
2019-05-06T04:27:04.150Z,78.75
2019-05-06T04:28:04.239Z,84.38
2019-05-06T04:29:04.201Z,84.38
2019-05-06T04:30:04.961Z,84.38
2019-05-06T04:31:04.089Z,90.00
2019-05-06T04:32:03.951Z,90.00
2019-05-06T04:33:04.107Z,90.00
2019-05-06T04:34:12.938Z,90.00
2019-05-06T04:35:05.042Z,95.62
2019-05-06T04:36:03.997Z,101.25
2019-05-06T04:37:03.841Z,101.25
2019-05-06T04:38:04.931Z,106.88
2019-05-06T04:39:04.396Z,112.50
2019-05-06T04:40:04.467Z,112.50
2019-05-06T04:41:04.283Z,118.12
2019-05-06T04:42:03.763Z,118.12
2019-05-06T04:43:03.865Z,118.12
2019-05-06T04:44:07.273Z,118.12
2019-05-06T04:45:04.550Z,123.75
2019-05-06T04:46:03.941Z,123.75
2019-05-06T04:47:05.435Z,123.75
2019-05-06T04:48:04.061Z,129.38
2019-05-06T04:49:04.170Z,135.00
2019-05-06T04:50:04.811Z,140.62
2019-05-06T04:51:03.714Z,140.62
2019-05-06T04:52:03.830Z,135.00
2019-05-06T04:53:05.211Z,140.62
2019-05-06T04:54:04.180Z,140.62
2019-05-06T04:55:03.933Z,135.00
2019-05-06T04:56:04.229Z,135.00
2019-05-06T04:57:05.047Z,129.38
2019-05-06T04:58:04.160Z,123.75
2019-05-06T04:59:06.250Z,118.12
2019-05-06T05:00:04.407Z,118.12
2019-05-06T05:01:04.298Z,123.75
2019-05-06T05:02:03.904Z,123.75
2019-05-06T05:03:03.535Z,112.50
2019-05-06T05:04:03.787Z,112.50
2019-05-06T05:05:04.312Z,112.50
2019-05-06T05:06:05.845Z,118.12
2019-05-06T05:07:03.579Z,118.12
2019-05-06T05:08:03.516Z,118.12
2019-05-06T05:09:03.524Z,123.75
2019-05-06T05:10:03.685Z,129.38
2019-05-06T05:11:03.722Z,135.00
2019-05-06T05:12:03.423Z,140.62
2019-05-06T05:13:03.683Z,151.88
2019-05-06T05:14:03.462Z,157.50
2019-05-06T05:15:03.422Z,163.12
2019-05-06T05:16:03.392Z,163.12
2019-05-06T05:17:03.431Z,163.12
2019-05-06T05:18:03.371Z,157.50
2019-05-06T05:19:03.393Z,163.12
2019-05-06T05:20:03.342Z,168.75
2019-05-06T05:21:03.349Z,174.38
2019-05-06T05:22:03.321Z,174.38
2019-05-06T05:23:03.353Z,180.00
2019-05-06T05:24:03.331Z,185.62
2019-05-06T05:25:03.585Z,191.25
2019-05-06T05:26:03.299Z,191.25
2019-05-06T05:27:03.300Z,196.88
2019-05-06T05:28:03.263Z,196.88
2019-05-06T05:29:03.267Z,196.88
2019-05-06T05:30:03.231Z,191.25
2019-05-06T05:31:03.271Z,191.25
2019-05-06T05:32:03.218Z,191.25
2019-05-06T05:33:03.230Z,196.88
2019-05-06T05:34:03.189Z,196.88
2019-05-06T05:35:03.237Z,196.88
2019-05-06T05:36:03.174Z,191.25
2019-05-06T05:37:03.204Z,185.62
2019-05-06T05:38:03.197Z,180.00
2019-05-06T05:39:03.475Z,180.00
2019-05-06T05:40:03.270Z,174.38
2019-05-06T05:41:03.221Z,168.75
2019-05-06T05:42:03.120Z,174.38
2019-05-06T05:43:03.093Z,180.00
2019-05-06T05:44:03.092Z,180.00
2019-05-06T05:45:03.081Z,180.00
2019-05-06T05:46:03.103Z,191.25
2019-05-06T05:47:03.544Z,202.50
2019-05-06T05:48:03.055Z,219.38
2019-05-06T05:49:03.044Z,219.38
2019-05-06T05:50:03.253Z,225.00
2019-05-06T05:51:03.401Z,236.25
2019-05-06T05:52:03.540Z,241.88
2019-05-06T05:53:03.031Z,253.12
2019-05-06T05:54:02.981Z,264.38
2019-05-06T05:55:03.003Z,275.62
2019-05-06T05:56:02.972Z,281.25
2019-05-06T05:57:02.976Z,286.88
2019-05-06T05:58:03.305Z,292.50
2019-05-06T05:59:03.443Z,298.12
2019-05-06T06:00:03.965Z,309.38
2019-05-06T06:01:04.126Z,315.00
2019-05-06T06:02:03.856Z,326.25
2019-05-06T06:03:03.021Z,326.25
2019-05-06T06:04:03.204Z,343.12
2019-05-06T06:05:02.869Z,348.75
2019-05-06T06:06:03.223Z,354.38
2019-05-06T06:07:03.008Z,360.00
2019-05-06T06:08:03.808Z,371.25
2019-05-06T06:09:03.244Z,376.88
2019-05-06T06:10:02.832Z,382.50
2019-05-06T06:11:04.289Z,388.12
2019-05-06T06:12:02.880Z,399.38
2019-05-06T06:13:02.959Z,399.38
2019-05-06T06:14:03.096Z,388.12
2019-05-06T06:15:02.755Z,365.62
2019-05-06T06:16:02.916Z,343.12
2019-05-06T06:17:02.727Z,331.88
2019-05-06T06:18:03.077Z,337.50
2019-05-06T06:19:03.241Z,337.50
2019-05-06T06:20:02.775Z,337.50
2019-05-06T06:21:16.978Z,331.88
2019-05-06T06:22:03.697Z,331.88
2019-05-06T06:23:02.965Z,337.50
2019-05-06T06:24:02.853Z,354.38
2019-05-06T06:25:04.227Z,365.62
2019-05-06T06:26:04.047Z,365.62
2019-05-06T06:27:03.044Z,371.25
2019-05-06T06:28:02.785Z,388.12
2019-05-06T06:29:03.277Z,393.75
2019-05-06T06:30:02.643Z,399.38
2019-05-06T06:31:03.058Z,416.25
2019-05-06T06:32:03.119Z,427.50
2019-05-06T06:33:02.704Z,438.75
2019-05-06T06:34:02.543Z,455.62
2019-05-06T06:35:10.596Z,450.00
2019-05-06T06:36:03.523Z,450.00
2019-05-06T06:37:02.660Z,438.75
2019-05-06T06:38:02.797Z,433.12
2019-05-06T06:39:02.501Z,421.88
2019-05-06T06:40:02.780Z,421.88
2019-05-06T06:41:02.846Z,444.38
2019-05-06T06:42:02.831Z,450.00
2019-05-06T06:43:02.446Z,455.62
2019-05-06T06:44:02.454Z,466.88
2019-05-06T06:45:03.480Z,472.50
2019-05-06T06:46:02.578Z,478.12
2019-05-06T06:47:02.411Z,478.12
2019-05-06T06:48:03.108Z,472.50
2019-05-06T06:49:03.250Z,466.88
2019-05-06T06:50:02.800Z,472.50
2019-05-06T06:51:03.472Z,483.75
2019-05-06T06:52:02.962Z,500.62
2019-05-06T06:53:03.058Z,511.88
2019-05-06T06:54:02.625Z,528.75
2019-05-06T06:55:02.622Z,545.62
2019-05-06T06:56:02.345Z,562.50
2019-05-06T06:57:08.727Z,585.00
2019-05-06T06:58:03.278Z,601.88
2019-05-06T06:59:02.656Z,624.38
2019-05-06T07:00:04.103Z,635.62
2019-05-06T07:01:03.104Z,630.00
2019-05-06T07:02:02.744Z,641.25
2019-05-06T07:03:02.702Z,652.50
2019-05-06T07:04:08.219Z,669.38
2019-05-06T07:05:03.210Z,680.62
2019-05-06T07:06:02.412Z,691.88
2019-05-06T07:07:02.999Z,691.88
2019-05-06T07:08:02.337Z,686.25
2019-05-06T07:09:02.737Z,686.25
2019-05-06T07:10:02.632Z,680.62
2019-05-06T07:11:02.263Z,675.00
2019-05-06T07:12:03.505Z,669.38
2019-05-06T07:13:02.951Z,663.75
2019-05-06T07:14:02.660Z,669.38
2019-05-06T07:15:02.541Z,686.25
2019-05-06T07:16:02.901Z,697.50
2019-05-06T07:17:02.487Z,708.75
2019-05-06T07:18:02.491Z,725.62
2019-05-06T07:19:03.130Z,748.12
2019-05-06T07:20:02.882Z,742.50
2019-05-06T07:21:05.100Z,748.12
2019-05-06T07:22:02.892Z,753.75
2019-05-06T07:23:02.075Z,759.38
2019-05-06T07:24:02.239Z,770.62
2019-05-06T07:25:03.739Z,765.00
2019-05-06T07:26:03.082Z,753.75
2019-05-06T07:27:03.008Z,748.12
2019-05-06T07:28:02.954Z,742.50
2019-05-06T07:29:03.950Z,748.12
2019-05-06T07:30:03.207Z,753.75
2019-05-06T07:31:17.366Z,753.75
2019-05-06T07:32:02.906Z,753.75
2019-05-06T07:33:03.701Z,759.38
2019-05-06T07:34:02.581Z,765.00
2019-05-06T07:35:02.381Z,770.62
2019-05-06T07:36:02.268Z,781.88
2019-05-06T07:37:03.425Z,804.38
2019-05-06T07:38:02.387Z,849.38
2019-05-06T07:39:04.120Z,888.75
2019-05-06T07:40:03.074Z,900.00
2019-05-06T07:41:04.681Z,888.75
2019-05-06T07:42:02.513Z,798.75
2019-05-06T07:43:02.219Z,883.12
2019-05-06T07:44:02.194Z,843.75
2019-05-06T07:45:06.452Z,793.12
2019-05-06T07:46:02.769Z,815.62
2019-05-06T07:47:03.552Z,821.25
2019-05-06T07:48:03.543Z,815.62
2019-05-06T07:49:03.259Z,821.25
2019-05-06T07:50:02.465Z,849.38
2019-05-06T07:51:03.045Z,849.38
2019-05-06T07:52:02.884Z,855.00
2019-05-06T07:53:02.368Z,838.12
2019-05-06T07:54:02.787Z,843.75
2019-05-06T07:55:02.614Z,860.62
2019-05-06T07:56:03.639Z,883.12
2019-05-06T07:57:02.413Z,1012.50
2019-05-06T07:58:02.933Z,1006.88
2019-05-06T07:59:03.224Z,1203.75
2019-05-06T08:00:03.421Z,2334.38
2019-05-06T08:01:02.739Z,2098.12
2019-05-06T08:02:02.248Z,1248.75
2019-05-06T08:03:02.506Z,1288.12
2019-05-06T08:04:02.552Z,1164.38
2019-05-06T08:05:02.667Z,1305.00
2019-05-06T08:06:02.673Z,984.38
2019-05-06T08:07:03.196Z,1046.25
2019-05-06T08:08:03.689Z,1653.75
2019-05-06T08:09:03.175Z,2047.50
2019-05-06T08:10:02.141Z,1603.12
2019-05-06T08:11:02.657Z,1338.75
2019-05-06T08:12:02.809Z,1355.62
2019-05-06T08:13:02.686Z,607.50
2019-05-06T08:14:02.205Z,523.12
2019-05-06T08:15:05.005Z,556.88
2019-05-06T08:16:02.245Z,585.00
2019-05-06T08:17:02.266Z,596.25
2019-05-06T08:18:03.320Z,613.12
2019-05-06T08:19:02.744Z,601.88
2019-05-06T08:20:02.514Z,613.12
2019-05-06T08:21:02.421Z,618.75
2019-05-06T08:22:02.753Z,675.00
2019-05-06T08:23:02.120Z,787.50
2019-05-06T08:24:02.699Z,1372.50
2019-05-06T08:25:03.396Z,2086.88
2019-05-06T08:26:10.038Z,855.00
2019-05-06T08:27:02.892Z,1743.75
2019-05-06T08:28:02.295Z,798.75
2019-05-06T08:29:02.816Z,787.50
2019-05-06T08:30:02.445Z,658.12
2019-05-06T08:31:02.419Z,669.38
2019-05-06T08:32:02.905Z,720.00
2019-05-06T08:33:02.249Z,787.50
2019-05-06T08:34:02.690Z,1676.25
2019-05-06T08:35:03.297Z,2221.88
2019-05-06T08:36:08.938Z,1816.88
2019-05-06T08:37:02.488Z,2553.75
2019-05-06T08:38:02.358Z,618.75
2019-05-06T08:39:02.730Z,613.12
2019-05-06T08:40:03.170Z,680.62
2019-05-06T08:41:02.733Z,776.25
2019-05-06T08:42:02.678Z,849.38
2019-05-06T08:43:02.219Z,815.62
2019-05-06T08:44:02.584Z,849.38
2019-05-06T08:45:02.231Z,1878.75
2019-05-06T08:46:03.158Z,3290.62
2019-05-06T08:47:02.483Z,2047.50
2019-05-06T08:48:02.948Z,1068.75
2019-05-06T08:49:03.124Z,3397.50
2019-05-06T08:50:02.430Z,3195.00
2019-05-06T08:51:02.702Z,2340.00
2019-05-06T08:52:02.424Z,2458.12
2019-05-06T08:53:04.835Z,2981.25
2019-05-06T08:54:03.089Z,1164.38
2019-05-06T08:55:04.320Z,911.25
2019-05-06T08:56:01.945Z,894.38
2019-05-06T08:57:02.596Z,1946.25
2019-05-06T08:58:02.995Z,978.75
2019-05-06T08:59:03.019Z,1878.75
2019-05-06T09:00:02.904Z,1170.00
2019-05-06T09:01:02.821Z,1108.12
2019-05-06T09:02:03.056Z,2548.12
2019-05-06T09:03:04.027Z,776.25
2019-05-06T09:04:11.445Z,725.62
2019-05-06T09:05:02.952Z,691.88
2019-05-06T09:06:03.029Z,669.38
2019-05-06T09:07:02.745Z,703.12
2019-05-06T09:08:03.237Z,736.88
2019-05-06T09:09:02.375Z,725.62
2019-05-06T09:10:02.535Z,742.50
2019-05-06T09:11:02.949Z,759.38
2019-05-06T09:12:02.679Z,826.88
2019-05-06T09:13:02.014Z,849.38
2019-05-06T09:14:03.140Z,849.38
2019-05-06T09:15:03.257Z,1726.88
2019-05-06T09:16:02.460Z,1220.62
2019-05-06T09:17:02.619Z,2632.50
2019-05-06T09:18:02.814Z,2610.00
2019-05-06T09:19:04.310Z,1451.25
2019-05-06T09:20:02.626Z,1597.50
2019-05-06T09:21:02.836Z,3138.75
2019-05-06T09:22:02.479Z,3015.00
2019-05-06T09:23:04.213Z,1496.25
2019-05-06T09:24:02.232Z,2857.50
2019-05-06T09:25:02.448Z,3380.62
2019-05-06T09:26:02.657Z,1490.62
2019-05-06T09:27:02.824Z,1243.12
2019-05-06T09:28:02.532Z,1327.50
2019-05-06T09:29:02.299Z,2936.25
2019-05-06T09:30:02.848Z,1732.50
2019-05-06T09:31:02.233Z,1811.25
2019-05-06T09:32:01.818Z,3301.88
2019-05-06T09:33:02.511Z,2716.88
2019-05-06T09:34:02.795Z,1051.88
2019-05-06T09:35:02.742Z,877.50
2019-05-06T09:36:02.808Z,950.62
2019-05-06T09:37:03.373Z,950.62
2019-05-06T09:38:02.191Z,3256.88
2019-05-06T09:39:02.288Z,3313.12
2019-05-06T09:40:02.774Z,3082.50
2019-05-06T09:41:00.507Z,2885.62
2019-05-06T09:42:02.263Z,3048.75
2019-05-06T09:43:04.446Z,3436.88
2019-05-06T09:44:02.929Z,3560.62
2019-05-06T09:45:02.250Z,3577.50
2019-05-06T09:46:02.391Z,3515.62
2019-05-06T09:47:02.387Z,3476.25
2019-05-06T09:48:00.455Z,3144.38
2019-05-06T09:49:00.405Z,2542.50
2019-05-06T09:50:02.799Z,3875.62
2019-05-06T09:51:02.754Z,2806.88
2019-05-06T09:52:02.476Z,2767.50
2019-05-06T09:53:02.490Z,4213.12
2019-05-06T09:54:03.784Z,2958.75
2019-05-06T09:55:03.184Z,3363.75
2019-05-06T09:56:00.364Z,3695.62
2019-05-06T09:57:02.256Z,3622.50
2019-05-06T09:58:03.157Z,1541.25
2019-05-06T09:59:02.201Z,3751.88
2019-05-06T10:00:04.395Z,3667.50
2019-05-06T10:01:02.517Z,3318.75
2019-05-06T10:02:00.277Z,3037.50
2019-05-06T10:03:09.583Z,1423.12
2019-05-06T10:04:03.294Z,1333.12
2019-05-06T10:05:03.325Z,1400.62
2019-05-06T10:06:02.525Z,1265.62
2019-05-06T10:07:02.502Z,1012.50
2019-05-06T10:08:00.209Z,888.75
2019-05-06T10:09:04.229Z,793.12
2019-05-06T10:10:00.212Z,736.88
2019-05-06T10:11:00.202Z,753.75
2019-05-06T10:12:02.055Z,765.00
2019-05-06T10:13:02.551Z,781.88
2019-05-06T10:14:00.142Z,804.38
2019-05-06T10:15:02.936Z,815.62
2019-05-06T10:16:02.735Z,832.50
2019-05-06T10:17:04.175Z,843.75
2019-05-06T10:18:00.096Z,933.75
2019-05-06T10:19:02.443Z,945.00
2019-05-06T10:20:02.599Z,995.62
2019-05-06T10:21:00.056Z,1046.25
2019-05-06T10:22:00.063Z,1125.00
2019-05-06T10:23:00.052Z,1276.88
2019-05-06T10:24:02.208Z,1406.25
2019-05-06T10:25:00.044Z,1625.62
2019-05-06T10:26:00.018Z,1659.38
2019-05-06T10:27:00.007Z,1642.50
2019-05-06T10:28:02.606Z,1631.25
2019-05-06T10:28:59.978Z,1603.12
2019-05-06T10:29:59.969Z,1569.38
2019-05-06T10:31:02.031Z,1591.88
2019-05-06T10:31:59.959Z,1552.50
2019-05-06T10:33:01.993Z,1563.75
2019-05-06T10:33:59.957Z,1608.75
2019-05-06T10:34:59.910Z,1642.50
2019-05-06T10:36:02.461Z,1620.00
2019-05-06T10:37:11.484Z,1625.62
2019-05-06T10:38:02.832Z,1625.62
2019-05-06T10:39:02.109Z,1546.88
2019-05-06T10:39:59.869Z,1479.38
2019-05-06T10:41:05.108Z,1541.25
2019-05-06T10:42:00.841Z,1558.12
2019-05-06T10:42:59.829Z,1586.25
2019-05-06T10:43:59.859Z,1833.75
2019-05-06T10:45:01.684Z,1513.12
2019-05-06T10:46:01.802Z,1580.62
2019-05-06T10:46:59.779Z,2587.50
2019-05-06T10:47:59.780Z,1428.75
2019-05-06T10:49:02.415Z,3116.25
2019-05-06T10:50:02.091Z,2581.88
2019-05-06T10:50:59.757Z,2621.25
2019-05-06T10:51:59.738Z,4168.12
2019-05-06T10:52:59.717Z,3481.88
2019-05-06T10:53:59.727Z,4151.25
2019-05-06T10:54:59.698Z,4708.12
2019-05-06T10:56:02.114Z,4674.38
2019-05-06T10:57:02.112Z,4455.00
2019-05-06T10:58:02.393Z,2047.50
2019-05-06T10:58:59.661Z,1440.00
2019-05-06T10:59:59.655Z,1282.50
2019-05-06T11:00:59.648Z,1546.88
2019-05-06T11:01:59.619Z,1524.38
2019-05-06T11:02:59.609Z,945.00
2019-05-06T11:03:59.610Z,967.50
2019-05-06T11:05:02.533Z,973.12
2019-05-06T11:05:59.581Z,1018.12
2019-05-06T11:06:59.567Z,1018.12
2019-05-06T11:07:59.547Z,967.50
2019-05-06T11:08:59.554Z,961.88
2019-05-06T11:09:59.548Z,961.88
2019-05-06T11:11:14.091Z,894.38
2019-05-06T11:12:00.515Z,894.38
2019-05-06T11:12:59.501Z,793.12
2019-05-06T11:13:59.507Z,765.00
2019-05-06T11:14:59.488Z,736.88
2019-05-06T11:15:59.489Z,753.75
2019-05-06T11:16:59.457Z,748.12
2019-05-06T11:17:59.442Z,753.75
2019-05-06T11:18:59.449Z,776.25
2019-05-06T11:19:59.427Z,815.62
2019-05-06T11:20:59.432Z,883.12
2019-05-06T11:21:59.404Z,990.00
2019-05-06T11:22:59.391Z,1147.50
2019-05-06T11:23:59.381Z,1344.38
2019-05-06T11:24:59.370Z,1912.50
2019-05-06T11:25:59.379Z,2131.88
2019-05-06T11:26:59.370Z,1968.75
2019-05-06T11:27:59.373Z,2266.88
2019-05-06T11:28:59.341Z,2643.75
2019-05-06T11:29:59.348Z,2531.25
2019-05-06T11:30:59.313Z,2615.62
2019-05-06T11:31:59.309Z,2362.50
2019-05-06T11:32:59.294Z,2446.88
2019-05-06T11:33:59.323Z,2323.12
2019-05-06T11:34:59.255Z,2250.00
2019-05-06T11:35:59.262Z,2278.12
2019-05-06T11:36:59.251Z,2013.75
2019-05-06T11:37:59.239Z,2126.25
2019-05-06T11:38:59.251Z,2103.75
2019-05-06T11:39:59.213Z,2103.75
2019-05-06T11:40:59.193Z,1861.88
2019-05-06T11:42:14.840Z,1895.62
2019-05-06T11:43:00.202Z,1636.88
2019-05-06T11:43:59.163Z,1423.12
2019-05-06T11:44:59.158Z,1136.25
2019-05-06T11:45:59.143Z,894.38
2019-05-06T11:46:59.130Z,731.25
2019-05-06T11:47:59.132Z,635.62
2019-05-06T11:48:59.137Z,568.12
2019-05-06T11:49:59.109Z,483.75
2019-05-06T11:50:59.112Z,376.88
2019-05-06T11:51:59.076Z,315.00
2019-05-06T11:52:59.064Z,286.88
2019-05-06T11:53:59.080Z,281.25
2019-05-06T11:54:59.065Z,303.75
2019-05-06T11:55:59.054Z,309.38
2019-05-06T11:56:59.025Z,326.25
2019-05-06T11:57:59.015Z,326.25
2019-05-06T11:58:59.006Z,337.50
2019-05-06T11:59:58.993Z,382.50
2019-05-06T12:00:58.992Z,371.25
2019-05-06T12:01:58.965Z,382.50
2019-05-06T12:02:58.956Z,393.75
2019-05-06T12:03:58.990Z,399.38
2019-05-06T12:04:58.942Z,410.62
2019-05-06T12:05:58.916Z,421.88
2019-05-06T12:07:10.128Z,438.75
2019-05-06T12:08:04.510Z,455.62
2019-05-06T12:08:59.920Z,489.38
2019-05-06T12:09:58.887Z,511.88
2019-05-06T12:10:58.865Z,551.25
2019-05-06T12:11:58.869Z,590.62
2019-05-06T12:12:58.869Z,641.25
2019-05-06T12:13:58.864Z,720.00
2019-05-06T12:14:58.843Z,815.62
2019-05-06T12:15:58.811Z,911.25
2019-05-06T12:16:58.804Z,1018.12
2019-05-06T12:17:58.793Z,1125.00
2019-05-06T12:18:59.899Z,1215.00
2019-05-06T12:19:58.779Z,1344.38
2019-05-06T12:21:09.016Z,1473.75
2019-05-06T12:21:59.757Z,1428.75
2019-05-06T12:22:58.754Z,1440.00
2019-05-06T12:23:58.741Z,1445.62
2019-05-06T12:24:58.730Z,1473.75
2019-05-06T12:25:58.715Z,1428.75
2019-05-06T12:26:58.705Z,1372.50
2019-05-06T12:27:58.679Z,1299.38
2019-05-06T12:28:58.701Z,1096.88
2019-05-06T12:29:58.677Z,916.88
2019-05-06T12:30:58.670Z,832.50
2019-05-06T12:31:58.644Z,843.75
2019-05-06T12:32:58.638Z,911.25
2019-05-06T12:33:58.648Z,967.50
2019-05-06T12:34:58.637Z,978.75
2019-05-06T12:35:58.630Z,956.25
2019-05-06T12:36:58.615Z,900.00
2019-05-06T12:37:58.567Z,877.50
2019-05-06T12:38:58.560Z,860.62
2019-05-06T12:39:58.585Z,843.75